createdAt,value
2023-05-19T00:01:37.607Z,12.25
2023-05-19T00:04:40.877Z,12.28
2023-05-19T00:07:44.654Z,12.27
2023-05-19T00:10:47.627Z,12.34
2023-05-19T00:13:51.159Z,12.32
2023-05-19T00:16:56.151Z,12.38
2023-05-19T00:19:58.735Z,12.26
2023-05-19T00:23:01.942Z,12.26
2023-05-19T00:26:04.645Z,12.17
2023-05-19T00:29:07.427Z,12.16
2023-05-19T00:32:10.233Z,12.10
2023-05-19T00:35:13.340Z,12.02
2023-05-19T00:38:15.881Z,11.93
2023-05-19T00:41:18.823Z,11.96
2023-05-19T00:44:21.478Z,11.92
2023-05-19T00:47:24.437Z,11.85
2023-05-19T00:50:28.376Z,11.86
2023-05-19T00:53:34.025Z,11.83
2023-05-19T00:56:36.637Z,11.88
2023-05-19T00:59:39.477Z,11.90
2023-05-19T01:02:43.407Z,11.89
2023-05-19T01:05:47.541Z,11.88
2023-05-19T01:08:51.746Z,11.82
2023-05-19T01:11:54.651Z,11.81
2023-05-19T01:14:58.646Z,11.79
2023-05-19T01:18:18.830Z,11.78
2023-05-19T01:21:44.553Z,11.70
2023-05-19T01:25:25.031Z,11.90
2023-05-19T01:29:03.125Z,11.75
2023-05-19T01:32:07.787Z,12.28
2023-05-19T01:35:12.844Z,11.75
2023-05-19T01:38:18.697Z,11.70
2023-05-19T01:41:22.551Z,11.67
2023-05-19T01:44:27.400Z,11.52
2023-05-19T01:47:30.604Z,11.61
2023-05-19T01:50:34.816Z,11.71
2023-05-19T01:53:37.589Z,11.80
2023-05-19T01:56:57.115Z,11.76
2023-05-19T02:00:24.912Z,11.65
2023-05-19T02:03:46.212Z,11.70
2023-05-19T02:07:13.553Z,11.56
2023-05-19T02:10:24.310Z,11.55
2023-05-19T02:13:33.915Z,11.57
2023-05-19T02:16:37.803Z,11.57
2023-05-19T02:19:40.488Z,11.54
2023-05-19T02:22:45.974Z,11.53
2023-05-19T02:25:49.071Z,11.68
2023-05-19T02:28:51.901Z,11.85
2023-05-19T02:31:54.680Z,11.78
2023-05-19T02:34:57.576Z,11.64
2023-05-19T02:38:00.066Z,11.71
2023-05-19T02:41:03.310Z,11.69
2023-05-19T02:44:06.131Z,11.63
2023-05-19T02:47:09.021Z,11.62
2023-05-19T02:50:11.689Z,11.62
2023-05-19T02:53:14.574Z,11.61
2023-05-19T02:56:17.071Z,11.54
2023-05-19T02:59:19.953Z,11.55
2023-05-19T03:02:22.483Z,11.49
2023-05-19T03:05:25.275Z,11.49
2023-05-19T03:08:28.337Z,11.45
2023-05-19T03:11:31.490Z,11.44
2023-05-19T03:14:35.180Z,11.46
2023-05-19T03:17:38.012Z,11.40
2023-05-19T03:20:42.372Z,11.41
2023-05-19T03:23:45.498Z,11.39
2023-05-19T03:26:48.031Z,11.44
2023-05-19T03:29:52.840Z,11.45
2023-05-19T03:32:55.620Z,11.51
2023-05-19T03:35:59.036Z,11.47
2023-05-19T03:39:02.376Z,11.44
2023-05-19T03:42:05.846Z,11.46
2023-05-19T03:45:09.918Z,11.54
2023-05-19T03:48:12.911Z,11.56
2023-05-19T03:51:17.548Z,11.58
2023-05-19T03:54:22.513Z,11.67
2023-05-19T03:57:26.961Z,11.75
2023-05-19T04:00:30.695Z,11.79
2023-05-19T04:03:33.885Z,11.85
2023-05-19T04:06:37.817Z,11.83
2023-05-19T04:09:40.576Z,11.89
2023-05-19T04:12:43.413Z,12.02
2023-05-19T04:15:46.310Z,12.04
2023-05-19T04:18:48.899Z,11.94
2023-05-19T04:21:51.935Z,12.07
2023-05-19T04:24:55.297Z,12.17
2023-05-19T04:27:58.843Z,12.24
2023-05-19T04:31:03.522Z,12.24
2023-05-19T04:34:08.009Z,12.19
2023-05-19T04:37:14.288Z,12.24
2023-05-19T04:40:17.376Z,12.39
2023-05-19T04:43:19.926Z,12.49
2023-05-19T04:46:24.546Z,12.51
2023-05-19T04:49:27.533Z,12.61
2023-05-19T04:52:30.854Z,12.77
2023-05-19T04:55:34.230Z,12.80
2023-05-19T04:58:39.585Z,13.02
2023-05-19T05:01:43.685Z,12.80
2023-05-19T05:04:47.108Z,13.07
2023-05-19T05:07:49.967Z,13.07
2023-05-19T05:10:54.045Z,13.19
2023-05-19T05:13:58.323Z,13.26
2023-05-19T05:17:02.522Z,13.31
2023-05-19T05:20:06.688Z,13.79
2023-05-19T05:23:14.482Z,13.76
2023-05-19T05:26:23.300Z,13.94
2023-05-19T05:29:28.566Z,13.83
2023-05-19T05:32:31.494Z,13.91
2023-05-19T05:35:35.266Z,14.09
2023-05-19T05:38:39.398Z,14.11
2023-05-19T05:41:42.449Z,14.30
2023-05-19T05:44:45.346Z,14.04
2023-05-19T05:47:48.739Z,14.42
2023-05-19T05:50:52.425Z,14.75
2023-05-19T05:53:56.609Z,14.54
2023-05-19T05:56:59.991Z,15.05
2023-05-19T06:00:05.968Z,15.40
2023-05-19T06:03:17.771Z,15.81
2023-05-19T06:06:21.509Z,16.28
2023-05-19T06:09:24.105Z,16.96
2023-05-19T06:12:27.627Z,16.81
2023-05-19T06:15:30.613Z,16.04
2023-05-19T06:18:35.186Z,15.92
2023-05-19T06:21:37.759Z,16.06
2023-05-19T06:24:41.682Z,16.19
2023-05-19T06:27:45.432Z,16.31
2023-05-19T06:30:49.461Z,16.08
2023-05-19T06:33:53.789Z,16.43
2023-05-19T06:36:56.611Z,16.99
2023-05-19T06:40:00.539Z,16.78
2023-05-19T06:43:03.600Z,17.79
2023-05-19T06:46:06.899Z,17.66
2023-05-19T06:49:11.089Z,17.28
2023-05-19T06:52:14.888Z,17.46
2023-05-19T06:55:17.783Z,17.97
2023-05-19T06:58:20.415Z,17.73
2023-05-19T07:01:23.278Z,17.62
2023-05-19T07:04:27.281Z,17.50
2023-05-19T07:07:31.676Z,18.36
2023-05-19T07:10:34.695Z,19.38
2023-05-19T07:13:38.616Z,18.86
2023-05-19T07:16:41.318Z,19.51
2023-05-19T07:19:44.316Z,19.42
2023-05-19T07:22:46.910Z,19.53
2023-05-19T07:25:55.105Z,20.98
2023-05-19T07:28:57.918Z,20.63
2023-05-19T07:32:01.005Z,20.99
2023-05-19T07:35:04.380Z,20.41
2023-05-19T07:38:07.555Z,21.08
2023-05-19T07:41:10.225Z,21.13
2023-05-19T07:44:13.276Z,22.00
2023-05-19T07:47:15.909Z,22.28
2023-05-19T07:50:18.731Z,20.68
2023-05-19T07:53:22.685Z,21.82
2023-05-19T07:56:25.860Z,22.50
2023-05-19T07:59:28.427Z,22.52
2023-05-19T08:02:31.510Z,22.66
2023-05-19T08:05:36.080Z,22.40
2023-05-19T08:08:38.564Z,22.53
2023-05-19T08:11:41.631Z,21.91
2023-05-19T08:14:44.107Z,20.72
2023-05-19T08:17:47.157Z,20.22
2023-05-19T08:20:49.675Z,20.46
2023-05-19T08:23:52.451Z,22.82
2023-05-19T08:26:55.745Z,22.05
2023-05-19T08:30:00.173Z,23.10
2023-05-19T08:33:02.814Z,21.48
2023-05-19T08:36:06.618Z,23.20
2023-05-19T08:39:09.047Z,24.37
2023-05-19T08:42:12.473Z,23.25
2023-05-19T08:45:15.767Z,21.69
2023-05-19T08:48:19.387Z,20.85
2023-05-19T08:51:32.037Z,20.79
2023-05-19T08:54:44.761Z,21.56
2023-05-19T08:57:52.069Z,22.61
2023-05-19T09:00:58.864Z,22.70
2023-05-19T09:04:01.908Z,21.81
2023-05-19T09:07:05.424Z,21.50
2023-05-19T09:10:08.985Z,21.29
2023-05-19T09:13:11.998Z,21.60
2023-05-19T09:16:14.739Z,22.13
2023-05-19T09:19:17.594Z,21.79
2023-05-19T09:22:20.637Z,22.03
2023-05-19T09:25:24.456Z,21.56
2023-05-19T09:28:35.617Z,21.85
2023-05-19T09:31:38.478Z,22.33
2023-05-19T09:34:42.150Z,21.66
2023-05-19T09:37:44.969Z,22.83
2023-05-19T09:40:50.002Z,22.94
2023-05-19T09:43:58.560Z,24.94
2023-05-19T09:47:01.143Z,24.23
2023-05-19T09:50:12.605Z,24.99
2023-05-19T09:53:17.328Z,24.86
2023-05-19T09:56:23.828Z,24.54
2023-05-19T09:59:30.540Z,24.82
2023-05-19T10:02:35.201Z,24.87
2023-05-19T10:05:38.618Z,25.48
2023-05-19T10:08:43.706Z,25.55
2023-05-19T10:11:46.519Z,25.33
2023-05-19T10:14:49.643Z,24.36
2023-05-19T10:17:55.549Z,23.96
2023-05-19T10:21:00.411Z,24.38
2023-05-19T10:24:03.271Z,24.16
2023-05-19T10:27:11.968Z,24.02
2023-05-19T10:30:18.860Z,24.47
2023-05-19T10:33:33.893Z,24.30
2023-05-19T10:36:49.766Z,23.95
2023-05-19T10:39:53.057Z,23.29
2023-05-19T10:43:11.940Z,22.97
2023-05-19T10:46:14.568Z,23.63
2023-05-19T10:49:22.213Z,23.91
2023-05-19T10:52:30.162Z,24.94
2023-05-19T10:56:06.962Z,24.45
2023-05-19T10:59:33.615Z,24.56
2023-05-19T11:02:41.582Z,24.71
2023-05-19T11:05:46.310Z,25.72
2023-05-19T11:09:06.185Z,24.95
2023-05-19T11:12:10.777Z,26.51
2023-05-19T11:15:17.125Z,26.62
2023-05-19T11:18:21.015Z,25.72
2023-05-19T11:21:24.004Z,25.06
2023-05-19T11:24:46.287Z,26.14
2023-05-19T11:27:50.810Z,26.90
2023-05-19T11:30:57.419Z,26.51
2023-05-19T11:34:00.995Z,25.47
2023-05-19T11:37:04.696Z,25.17
2023-05-19T11:40:08.311Z,24.96
2023-05-19T11:43:11.308Z,24.63
2023-05-19T11:46:14.362Z,25.29
2023-05-19T11:49:17.081Z,25.08
2023-05-19T11:52:22.456Z,25.46
2023-05-19T11:55:25.338Z,25.64
2023-05-19T11:58:28.320Z,25.71
2023-05-19T12:01:31.943Z,24.27
2023-05-19T12:04:38.875Z,24.06
2023-05-19T12:07:43.260Z,24.89
2023-05-19T12:10:52.023Z,24.48
2023-05-19T12:13:59.110Z,24.85
2023-05-19T12:17:21.462Z,24.11
2023-05-19T12:20:24.931Z,23.73
2023-05-19T12:23:30.745Z,23.59
2023-05-19T12:26:34.988Z,23.44
2023-05-19T12:29:38.754Z,23.62
2023-05-19T12:32:42.776Z,23.82
2023-05-19T12:35:48.034Z,23.73
2023-05-19T12:40:31.199Z,24.08
2023-05-19T12:43:35.152Z,24.46
2023-05-19T12:46:40.543Z,24.91
2023-05-19T12:49:57.231Z,24.53
2023-05-19T12:53:00.057Z,24.88
2023-05-19T12:56:12.694Z,23.68
2023-05-19T12:59:30.978Z,23.93
2023-05-19T13:03:07.805Z,24.02
2023-05-19T13:06:10.759Z,23.55
2023-05-19T13:09:15.152Z,23.40
2023-05-19T13:12:20.505Z,23.59
2023-05-19T13:15:26.184Z,23.77
2023-05-19T13:18:32.241Z,24.18
2023-05-19T13:21:35.670Z,23.91
2023-05-19T13:24:39.671Z,23.77
2023-05-19T13:27:44.407Z,23.81
2023-05-19T13:30:47.155Z,23.67
2023-05-19T13:33:52.810Z,23.77
2023-05-19T13:36:55.607Z,23.60
2023-05-19T13:39:58.647Z,23.75
2023-05-19T13:43:02.518Z,23.16
2023-05-19T13:46:06.013Z,23.53
2023-05-19T13:49:08.466Z,23.39
2023-05-19T13:52:11.638Z,23.24
2023-05-19T13:55:14.833Z,22.81
2023-05-19T13:58:18.067Z,23.25
2023-05-19T14:01:20.710Z,23.50
2023-05-19T14:04:24.504Z,23.40
2023-05-19T14:07:28.291Z,23.49
2023-05-19T14:10:31.546Z,23.59
2023-05-19T14:13:37.125Z,23.82
2023-05-19T14:16:43.014Z,23.88
2023-05-19T14:19:45.715Z,23.97
2023-05-19T14:22:48.525Z,24.00
2023-05-19T14:25:51.266Z,23.75
2023-05-19T14:28:54.251Z,23.98
2023-05-19T14:31:57.119Z,23.65
2023-05-19T14:35:00.061Z,24.07
2023-05-19T14:38:02.806Z,24.09
2023-05-19T14:41:06.844Z,24.37
2023-05-19T14:44:09.445Z,24.31
2023-05-19T14:47:12.660Z,24.43
2023-05-19T14:50:15.831Z,24.18
2023-05-19T14:53:18.608Z,23.86
2023-05-19T14:56:22.612Z,23.86
2023-05-19T14:59:25.955Z,24.03
2023-05-19T15:02:29.793Z,23.78
2023-05-19T15:05:34.599Z,23.55
2023-05-19T15:08:41.521Z,23.46
2023-05-19T15:11:44.390Z,23.84
2023-05-19T15:14:46.998Z,23.77
2023-05-19T15:17:49.811Z,23.76
2023-05-19T15:20:52.351Z,23.59
2023-05-19T15:23:55.350Z,23.64
2023-05-19T15:26:58.143Z,23.53
2023-05-19T15:30:01.197Z,23.72
2023-05-19T15:33:04.191Z,23.53
2023-05-19T15:36:08.282Z,23.42
2023-05-19T15:39:10.948Z,23.48
2023-05-19T15:42:13.757Z,23.55
2023-05-19T15:45:16.238Z,23.38
2023-05-19T15:48:19.343Z,23.36
2023-05-19T15:51:24.147Z,23.19
2023-05-19T15:54:26.928Z,23.50
2023-05-19T15:57:29.396Z,23.44
2023-05-19T16:00:32.560Z,23.24
2023-05-19T16:03:35.765Z,23.07
2023-05-19T16:06:38.605Z,23.12
2023-05-19T16:09:41.500Z,23.17
2023-05-19T16:12:43.959Z,22.76
2023-05-19T16:15:47.098Z,22.65
2023-05-19T16:18:50.101Z,22.61
2023-05-19T16:21:52.940Z,22.63
2023-05-19T16:24:55.683Z,22.51
2023-05-19T16:27:58.717Z,22.44
2023-05-19T16:31:01.396Z,22.50
2023-05-19T16:34:04.216Z,22.30
2023-05-19T16:37:07.075Z,22.25
2023-05-19T16:40:10.214Z,22.13
2023-05-19T16:43:12.745Z,21.95
2023-05-19T16:46:15.665Z,21.84
2023-05-19T16:49:18.208Z,21.83
2023-05-19T16:52:21.104Z,21.74
2023-05-19T16:55:25.349Z,21.68
2023-05-19T16:58:29.604Z,21.54
2023-05-19T17:01:33.448Z,21.53
2023-05-19T17:04:38.739Z,21.51
2023-05-19T17:07:41.249Z,21.52
2023-05-19T17:10:44.901Z,21.42
2023-05-19T17:13:47.489Z,21.42
2023-05-19T17:16:52.506Z,21.31
2023-05-19T17:19:55.335Z,21.29
2023-05-19T17:22:58.300Z,21.26
2023-05-19T17:26:01.810Z,21.23
2023-05-19T17:29:05.914Z,21.11
2023-05-19T17:32:08.436Z,21.07
2023-05-19T17:35:11.501Z,20.97
2023-05-19T17:38:13.996Z,20.94
2023-05-19T17:41:17.108Z,20.87
2023-05-19T17:44:19.610Z,20.80
2023-05-19T17:47:22.466Z,20.77
2023-05-19T17:50:25.093Z,20.68
2023-05-19T17:53:28.158Z,20.65
2023-05-19T17:56:33.703Z,20.64
2023-05-19T17:59:36.804Z,20.61
2023-05-19T18:02:39.831Z,20.49
2023-05-19T18:05:44.661Z,20.44
2023-05-19T18:08:50.474Z,20.30
2023-05-19T18:11:55.532Z,20.18
2023-05-19T18:14:58.175Z,20.14
2023-05-19T18:18:01.587Z,20.21
2023-05-19T18:21:04.291Z,20.05
2023-05-19T18:24:07.100Z,20.04
2023-05-19T18:27:09.562Z,20.01
2023-05-19T18:30:13.111Z,19.96
2023-05-19T18:33:16.352Z,19.95
2023-05-19T18:36:20.532Z,19.94
2023-05-19T18:39:23.071Z,19.88
2023-05-19T18:42:25.999Z,19.68
2023-05-19T18:45:28.559Z,19.63
2023-05-19T18:48:33.220Z,19.64
2023-05-19T18:51:36.273Z,19.64
2023-05-19T18:54:40.631Z,19.60
2023-05-19T18:57:43.156Z,19.60
2023-05-19T19:00:46.105Z,19.49
2023-05-19T19:03:49.351Z,19.55
2023-05-19T19:06:52.485Z,19.52
2023-05-19T19:09:58.020Z,19.44
2023-05-19T19:13:00.939Z,19.46
2023-05-19T19:16:04.009Z,19.37
2023-05-19T19:19:07.257Z,19.37
2023-05-19T19:22:09.880Z,19.36
2023-05-19T19:25:12.708Z,19.33
2023-05-19T19:28:18.385Z,19.34
2023-05-19T19:31:23.206Z,19.27
2023-05-19T19:34:26.242Z,19.14
2023-05-19T19:37:29.093Z,19.14
2023-05-19T19:40:32.526Z,19.10
2023-05-19T19:43:35.648Z,19.07
2023-05-19T19:46:38.197Z,19.03
2023-05-19T19:49:41.365Z,19.03
2023-05-19T19:52:43.894Z,19.03
2023-05-19T19:55:56.023Z,18.96
2023-05-19T19:58:59.322Z,18.95
2023-05-19T20:02:02.551Z,18.95
2023-05-19T20:05:06.332Z,18.89
2023-05-19T20:08:08.954Z,18.80
2023-05-19T20:11:15.220Z,18.79
2023-05-19T20:14:20.289Z,18.81
2023-05-19T20:17:23.199Z,18.90
2023-05-19T20:20:25.827Z,18.88
2023-05-19T20:23:28.987Z,18.90
2023-05-19T20:26:31.635Z,18.81
2023-05-19T20:29:36.673Z,18.81
2023-05-19T20:32:39.996Z,18.81
2023-05-19T20:35:42.932Z,18.74
2023-05-19T20:38:47.972Z,18.34
2023-05-19T20:41:51.044Z,18.41
2023-05-19T20:44:53.658Z,18.39
2023-05-19T20:47:56.677Z,18.20
2023-05-19T20:50:59.300Z,18.11
2023-05-19T20:54:02.689Z,18.25
2023-05-19T20:57:09.105Z,18.27
2023-05-19T21:00:12.307Z,18.23
2023-05-19T21:03:14.993Z,18.06
2023-05-19T21:06:18.069Z,17.91
2023-05-19T21:09:22.210Z,17.86
2023-05-19T21:12:33.811Z,17.88
2023-05-19T21:15:36.732Z,17.94
2023-05-19T21:18:39.476Z,17.93
2023-05-19T21:21:44.739Z,17.84
2023-05-19T21:24:47.651Z,17.73
2023-05-19T21:27:51.405Z,17.57
2023-05-19T21:30:54.279Z,17.55
2023-05-19T21:33:57.115Z,17.52
2023-05-19T21:37:00.032Z,17.55
2023-05-19T21:40:05.537Z,17.46
2023-05-19T21:43:08.657Z,17.46
2023-05-19T21:46:11.178Z,17.48
2023-05-19T21:49:14.086Z,17.40
2023-05-19T21:52:16.646Z,17.43
2023-05-19T21:55:20.162Z,17.44
2023-05-19T21:58:22.858Z,17.30
2023-05-19T22:01:25.842Z,17.28
2023-05-19T22:04:31.467Z,17.23
2023-05-19T22:07:33.914Z,17.13
2023-05-19T22:10:37.345Z,16.93
2023-05-19T22:13:41.185Z,16.72
2023-05-19T22:16:44.525Z,16.66
2023-05-19T22:19:47.101Z,16.66
2023-05-19T22:22:49.913Z,16.92
2023-05-19T22:25:53.884Z,16.95
2023-05-19T22:28:56.668Z,16.97
2023-05-19T22:31:59.360Z,16.95
2023-05-19T22:35:02.169Z,16.98
2023-05-19T22:38:04.683Z,16.96
2023-05-19T22:41:07.755Z,16.87
2023-05-19T22:44:11.381Z,16.88
2023-05-19T22:47:14.373Z,16.82
2023-05-19T22:50:17.163Z,16.73
2023-05-19T22:53:19.909Z,16.62
2023-05-19T22:56:23.182Z,16.66
2023-05-19T22:59:26.093Z,16.66
2023-05-19T23:02:28.713Z,16.65
2023-05-19T23:05:31.695Z,16.60
2023-05-19T23:08:34.406Z,16.52
2023-05-19T23:11:37.363Z,16.46
2023-05-19T23:14:39.839Z,16.48
2023-05-19T23:17:42.818Z,16.31
2023-05-19T23:20:45.710Z,16.31
2023-05-19T23:23:49.705Z,16.25
2023-05-19T23:26:54.663Z,16.24
2023-05-19T23:29:57.560Z,16.18
2023-05-19T23:33:00.075Z,16.16
2023-05-19T23:36:08.346Z,16.14
2023-05-19T23:39:11.364Z,16.16
2023-05-19T23:42:16.594Z,16.15
2023-05-19T23:45:19.097Z,16.14
2023-05-19T23:48:22.028Z,16.07
2023-05-19T23:51:24.510Z,16.00
2023-05-19T23:54:27.256Z,15.95
2023-05-19T23:57:29.862Z,15.98
